sensor_id;sensor_type;location;lat;lon;timestamp;pressure;altitude;pressure_sealevel;temperature;humidity
9695;BME280;4690;52.422;13.486;2022-10-16T00:04:01;100865.31;;;15.60;83.27
9695;BME280;4690;52.422;13.486;2022-10-16T00:06:28;100877.19;;;15.61;83.21
9695;BME280;4690;52.422;13.486;2022-10-16T00:08:55;100883.81;;;15.60;83.18
9695;BME280;4690;52.422;13.486;2022-10-16T00:11:33;100879.97;;;15.61;83.25
9695;BME280;4690;52.422;13.486;2022-10-16T00:14:03;100892.94;;;15.60;83.24
9695;BME280;4690;52.422;13.486;2022-10-16T00:16:29;100893.78;;;15.61;83.59
9695;BME280;4690;52.422;13.486;2022-10-16T00:18:55;100887.72;;;15.64;83.69
9695;BME280;4690;52.422;13.486;2022-10-16T00:21:27;100885.78;;;15.64;84.21
9695;BME280;4690;52.422;13.486;2022-10-16T00:23:58;100886.13;;;15.68;84.27
9695;BME280;4690;52.422;13.486;2022-10-16T00:26:27;100881.19;;;15.70;84.28
9695;BME280;4690;52.422;13.486;2022-10-16T00:28:53;100882.03;;;15.71;84.31
9695;BME280;4690;52.422;13.486;2022-10-16T00:31:21;100897.78;;;15.70;84.43
9695;BME280;4690;52.422;13.486;2022-10-16T00:33:48;100903.63;;;15.74;84.36
9695;BME280;4690;52.422;13.486;2022-10-16T00:36:20;100904.47;;;15.74;84.31
9695;BME280;4690;52.422;13.486;2022-10-16T00:38:45;100899.50;;;15.76;84.36
9695;BME280;4690;52.422;13.486;2022-10-16T00:41:16;100897.34;;;15.78;84.31
9695;BME280;4690;52.422;13.486;2022-10-16T00:43:53;100915.56;;;15.79;84.17
9695;BME280;4690;52.422;13.486;2022-10-16T00:46:24;100904.00;;;15.82;84.02
9695;BME280;4690;52.422;13.486;2022-10-16T00:49:02;100900.47;;;15.87;84.05
9695;BME280;4690;52.422;13.486;2022-10-16T00:51:35;100899.63;;;15.86;84.03
9695;BME280;4690;52.422;13.486;2022-10-16T00:54:04;100901.56;;;15.86;83.71
9695;BME280;4690;52.422;13.486;2022-10-16T00:56:33;100897.13;;;15.85;83.85
9695;BME280;4690;52.422;13.486;2022-10-16T00:59:04;100909.28;;;15.84;83.71
9695;BME280;4690;52.422;13.486;2022-10-16T01:01:31;100907.03;;;15.81;83.61
9695;BME280;4690;52.422;13.486;2022-10-16T01:03:57;100910.91;;;15.80;83.71
9695;BME280;4690;52.422;13.486;2022-10-16T01:06:47;100903.09;;;15.77;83.61
9695;BME280;4690;52.422;13.486;2022-10-16T01:09:28;100908.06;;;15.75;83.48
9695;BME280;4690;52.422;13.486;2022-10-16T01:12:08;100915.78;;;15.73;83.36
9695;BME280;4690;52.422;13.486;2022-10-16T01:14:47;100917.13;;;15.70;83.13
9695;BME280;4690;52.422;13.486;2022-10-16T01:28:28;100921.59;;;15.54;83.03
9695;BME280;4690;52.422;13.486;2022-10-16T01:30:59;100931.53;;;15.55;82.98
9695;BME280;4690;52.422;13.486;2022-10-16T01:33:37;100932.66;;;15.54;82.91
9695;BME280;4690;52.422;13.486;2022-10-16T01:36:17;100943.69;;;15.54;84.21
9695;BME280;4690;52.422;13.486;2022-10-16T01:38:49;100927.13;;;15.54;86.34
9695;BME280;4690;52.422;13.486;2022-10-16T01:41:24;100940.97;;;15.59;87.06
9695;BME280;4690;52.422;13.486;2022-10-16T01:44:05;100940.72;;;15.61;87.29
9695;BME280;4690;52.422;13.486;2022-10-16T01:46:37;100944.31;;;15.61;88.06
9695;BME280;4690;52.422;13.486;2022-10-16T01:49:06;100951.88;;;15.66;88.45
9695;BME280;4690;52.422;13.486;2022-10-16T01:51:35;100945.59;;;15.71;88.87
9695;BME280;4690;52.422;13.486;2022-10-16T01:54:06;100946.16;;;15.73;89.50
9695;BME280;4690;52.422;13.486;2022-10-16T01:56:35;100942.13;;;15.80;89.52
9695;BME280;4690;52.422;13.486;2022-10-16T01:59:09;100954.63;;;15.88;89.27
9695;BME280;4690;52.422;13.486;2022-10-16T02:01:42;100956.66;;;15.93;89.18
9695;BME280;4690;52.422;13.486;2022-10-16T02:04:39;100953.94;;;15.98;88.87
9695;BME280;4690;52.422;13.486;2022-10-16T02:07:08;100958.88;;;15.96;89.66
9695;BME280;4690;52.422;13.486;2022-10-16T02:09:35;100964.19;;;15.97;90.21
9695;BME280;4690;52.422;13.486;2022-10-16T02:12:11;100951.31;;;16.08;89.70
9695;BME280;4690;52.422;13.486;2022-10-16T02:14:40;100960.81;;;16.17;89.11
9695;BME280;4690;52.422;13.486;2022-10-16T02:17:17;100970.66;;;16.08;89.35
9695;BME280;4690;52.422;13.486;2022-10-16T02:19:45;100984.00;;;16.16;89.33
9695;BME280;4690;52.422;13.486;2022-10-16T02:22:27;100974.63;;;16.17;89.13
9695;BME280;4690;52.422;13.486;2022-10-16T02:25:08;100967.47;;;16.21;89.02
9695;BME280;4690;52.422;13.486;2022-10-16T02:30:42;100961.78;;;16.28;88.81
9695;BME280;4690;52.422;13.486;2022-10-16T02:33:12;100957.66;;;16.30;88.48
9695;BME280;4690;52.422;13.486;2022-10-16T02:35:40;100953.31;;;16.40;88.13
9695;BME280;4690;52.422;13.486;2022-10-16T02:38:08;100961.09;;;16.43;87.92
9695;BME280;4690;52.422;13.486;2022-10-16T02:40:35;100960.88;;;16.49;87.67
9695;BME280;4690;52.422;13.486;2022-10-16T02:43:04;100969.63;;;16.41;87.52
9695;BME280;4690;52.422;13.486;2022-10-16T02:45:30;100976.34;;;16.45;87.75
9695;BME280;4690;52.422;13.486;2022-10-16T02:47:56;100969.69;;;16.46;87.71
9695;BME280;4690;52.422;13.486;2022-10-16T02:50:22;100967.22;;;16.45;87.54
9695;BME280;4690;52.422;13.486;2022-10-16T02:52:49;100967.22;;;16.45;87.44
9695;BME280;4690;52.422;13.486;2022-10-16T02:55:15;100972.47;;;16.46;87.33
9695;BME280;4690;52.422;13.486;2022-10-16T02:57:41;100967.22;;;16.45;87.67
9695;BME280;4690;52.422;13.486;2022-10-16T03:00:09;100970.00;;;16.50;87.35
9695;BME280;4690;52.422;13.486;2022-10-16T03:02:36;100976.34;;;16.45;87.60
9695;BME280;4690;52.422;13.486;2022-10-16T03:05:02;100975.28;;;16.51;87.48
9695;BME280;4690;52.422;13.486;2022-10-16T03:07:28;100982.84;;;16.61;87.29
9695;BME280;4690;52.422;13.486;2022-10-16T03:09:54;100984.53;;;16.62;86.80
9695;BME280;4690;52.422;13.486;2022-10-16T03:12:21;100984.41;;;16.52;87.00
9695;BME280;4690;52.422;13.486;2022-10-16T03:14:47;100996.06;;;16.54;86.65
9695;BME280;4690;52.422;13.486;2022-10-16T03:17:13;101010.72;;;16.54;87.00
9695;BME280;4690;52.422;13.486;2022-10-16T03:19:39;101013.25;;;16.56;86.60
9695;BME280;4690;52.422;13.486;2022-10-16T03:22:04;101007.13;;;16.54;86.71
9695;BME280;4690;52.422;13.486;2022-10-16T03:24:30;100996.13;;;16.59;86.33
9695;BME280;4690;52.422;13.486;2022-10-16T03:26:56;100989.53;;;16.65;86.38
9695;BME280;4690;52.422;13.486;2022-10-16T03:29:22;100989.00;;;16.68;85.87
9695;BME280;4690;52.422;13.486;2022-10-16T03:31:48;100997.25;;;16.63;85.62
9695;BME280;4690;52.422;13.486;2022-10-16T03:34:15;101005.56;;;16.63;85.55
9695;BME280;4690;52.422;13.486;2022-10-16T03:36:41;101001.72;;;16.64;85.05
9695;BME280;4690;52.422;13.486;2022-10-16T03:39:06;101017.22;;;16.65;85.11
9695;BME280;4690;52.422;13.486;2022-10-16T03:41:32;101027.13;;;16.61;84.98
9695;BME280;4690;52.422;13.486;2022-10-16T03:43:58;101024.88;;;16.58;84.73
9695;BME280;4690;52.422;13.486;2022-10-16T03:46:23;101033.38;;;16.51;85.07
9695;BME280;4690;52.422;13.486;2022-10-16T03:48:49;101025.34;;;16.50;84.99
9695;BME280;4690;52.422;13.486;2022-10-16T03:51:15;101035.50;;;16.44;85.30
9695;BME280;4690;52.422;13.486;2022-10-16T03:53:41;101036.63;;;16.43;85.20
9695;BME280;4690;52.422;13.486;2022-10-16T03:56:06;101037.72;;;16.42;85.47
9695;BME280;4690;52.422;13.486;2022-10-16T03:58:32;101039.06;;;16.40;85.60
9695;BME280;4690;52.422;13.486;2022-10-16T04:00:58;101050.72;;;16.42;85.36
9695;BME280;4690;52.422;13.486;2022-10-16T04:03:24;101048.78;;;16.42;85.14
9695;BME280;4690;52.422;13.486;2022-10-16T04:05:50;101052.97;;;16.45;85.42
9695;BME280;4690;52.422;13.486;2022-10-16T04:08:16;101062.84;;;16.41;85.36
9695;BME280;4690;52.422;13.486;2022-10-16T04:10:45;101073.59;;;16.37;85.31
9695;BME280;4690;52.422;13.486;2022-10-16T04:13:11;101074.38;;;16.32;85.33
9695;BME280;4690;52.422;13.486;2022-10-16T04:15:38;101064.13;;;16.33;85.36
9695;BME280;4690;52.422;13.486;2022-10-16T04:18:05;101067.75;;;16.33;85.48
9695;BME280;4690;52.422;13.486;2022-10-16T04:20:31;101057.66;;;16.22;86.03
9695;BME280;4690;52.422;13.486;2022-10-16T04:22:57;101068.78;;;16.27;85.86
9695;BME280;4690;52.422;13.486;2022-10-16T04:25:23;101060.47;;;16.27;86.02
9695;BME280;4690;52.422;13.486;2022-10-16T04:27:49;101061.88;;;16.30;85.76
9695;BME280;4690;52.422;13.486;2022-10-16T04:30:14;101064.66;;;16.30;85.80
9695;BME280;4690;52.422;13.486;2022-10-16T04:32:40;101059.41;;;16.28;85.92
9695;BME280;4690;52.422;13.486;2022-10-16T04:35:07;101056.56;;;16.23;86.14
9695;BME280;4690;52.422;13.486;2022-10-16T04:37:33;101054.94;;;16.27;86.00
9695;BME280;4690;52.422;13.486;2022-10-16T04:39:58;101045.88;;;16.32;85.79
9695;BME280;4690;52.422;13.486;2022-10-16T04:42:24;101040.09;;;16.33;85.44
9695;BME280;4690;52.422;13.486;2022-10-16T04:44:50;101041.44;;;16.31;85.24
9695;BME280;4690;52.422;13.486;2022-10-16T04:47:15;101032.81;;;16.27;85.11
9695;BME280;4690;52.422;13.486;2022-10-16T04:49:41;101040.56;;;16.25;84.93
9695;BME280;4690;52.422;13.486;2022-10-16T04:52:07;101047.69;;;16.21;84.91
9695;BME280;4690;52.422;13.486;2022-10-16T04:54:34;101043.50;;;16.19;84.73
9695;BME280;4690;52.422;13.486;2022-10-16T04:57:00;101047.38;;;16.18;84.65
9695;BME280;4690;52.422;13.486;2022-10-16T04:59:25;101047.38;;;16.18;84.69
9695;BME280;4690;52.422;13.486;2022-10-16T05:01:51;101039.06;;;16.18;84.52
9695;BME280;4690;52.422;13.486;2022-10-16T05:04:17;101043.78;;;16.17;84.25
9695;BME280;4690;52.422;13.486;2022-10-16T05:06:43;101052.81;;;16.12;84.24
9695;BME280;4690;52.422;13.486;2022-10-16T05:09:09;101068.50;;;16.07;84.21
9695;BME280;4690;52.422;13.486;2022-10-16T05:11:35;101078.97;;;16.05;84.07
9695;BME280;4690;52.422;13.486;2022-10-16T05:14:01;101089.47;;;16.03;83.91
9695;BME280;4690;52.422;13.486;2022-10-16T05:16:27;101092.75;;;16.00;84.06
9695;BME280;4690;52.422;13.486;2022-10-16T05:18:53;101093.25;;;15.97;83.96
9695;BME280;4690;52.422;13.486;2022-10-16T05:21:19;101091.56;;;15.96;84.18
9695;BME280;4690;52.422;13.486;2022-10-16T05:23:45;101094.59;;;15.94;84.85
9695;BME280;4690;52.422;13.486;2022-10-16T05:26:10;101097.38;;;15.94;84.97
9695;BME280;4690;52.422;13.486;2022-10-16T05:28:36;101099.22;;;15.88;84.90
9695;BME280;4690;52.422;13.486;2022-10-16T05:31:07;101089.31;;;15.93;85.04
9695;BME280;4690;52.422;13.486;2022-10-16T05:33:33;101094.09;;;15.97;84.64
9695;BME280;4690;52.422;13.486;2022-10-16T05:36:07;101080.28;;;15.97;84.50
9695;BME280;4690;52.422;13.486;2022-10-16T05:38:35;101078.03;;;15.94;84.23
9695;BME280;4690;52.422;13.486;2022-10-16T05:41:02;101083.47;;;15.89;84.34
9695;BME280;4690;52.422;13.486;2022-10-16T05:43:29;101085.41;;;15.88;83.76
9695;BME280;4690;52.422;13.486;2022-10-16T05:46:04;101086.75;;;15.86;83.89
9695;BME280;4690;52.422;13.486;2022-10-16T05:48:31;101087.25;;;15.83;83.70
9695;BME280;4690;52.422;13.486;2022-10-16T05:51:06;101088.59;;;15.80;83.69
9695;BME280;4690;52.422;13.486;2022-10-16T05:53:37;101105.69;;;15.77;83.62
9695;BME280;4690;52.422;13.486;2022-10-16T05:56:05;101104.81;;;15.77;83.55
9695;BME280;4690;52.422;13.486;2022-10-16T05:58:34;101111.22;;;15.77;83.59
9695;BME280;4690;52.422;13.486;2022-10-16T06:01:05;101102.66;;;15.79;83.70
9695;BME280;4690;52.422;13.486;2022-10-16T06:03:33;101102.66;;;15.79;83.54
9695;BME280;4690;52.422;13.486;2022-10-16T06:05:59;101101.81;;;15.78;83.78
9695;BME280;4690;52.422;13.486;2022-10-16T06:08:25;101105.41;;;15.79;83.96
9695;BME280;4690;52.422;13.486;2022-10-16T06:11:05;101102.72;;;15.84;84.13
9695;BME280;4690;52.422;13.486;2022-10-16T06:13:31;101109.69;;;15.86;84.58
9695;BME280;4690;52.422;13.486;2022-10-16T06:15:59;101114.28;;;15.81;85.44
9695;BME280;4690;52.422;13.486;2022-10-16T06:18:27;101122.66;;;15.86;86.15
9695;BME280;4690;52.422;13.486;2022-10-16T06:20:54;101117.97;;;15.86;86.06
9695;BME280;4690;52.422;13.486;2022-10-16T06:23:20;101108.94;;;15.91;86.67
9695;BME280;4690;52.422;13.486;2022-10-16T06:25:46;101118.13;;;15.97;86.79
9695;BME280;4690;52.422;13.486;2022-10-16T06:28:14;101126.56;;;16.07;86.72
9695;BME280;4690;52.422;13.486;2022-10-16T06:30:41;101113.66;;;16.12;86.92
9695;BME280;4690;52.422;13.486;2022-10-16T06:33:08;101119.66;;;16.26;86.82
9695;BME280;4690;52.422;13.486;2022-10-16T06:35:34;101126.16;;;16.37;86.54
9695;BME280;4690;52.422;13.486;2022-10-16T06:37:59;101127.59;;;16.40;86.05
9695;BME280;4690;52.422;13.486;2022-10-16T06:40:25;101132.31;;;16.44;86.16
9695;BME280;4690;52.422;13.486;2022-10-16T06:42:50;101147.94;;;16.50;85.78
9695;BME280;4690;52.422;13.486;2022-10-16T06:45:17;101139.03;;;16.48;86.07
9695;BME280;4690;52.422;13.486;2022-10-16T06:47:43;101152.09;;;16.53;85.86
9695;BME280;4690;52.422;13.486;2022-10-16T06:50:08;101162.38;;;16.57;85.88
9695;BME280;4690;52.422;13.486;2022-10-16T06:52:34;101163.56;;;16.62;86.00
9695;BME280;4690;52.422;13.486;2022-10-16T06:55:00;101163.59;;;16.67;86.02
9695;BME280;4690;52.422;13.486;2022-10-16T06:57:26;101161.19;;;16.70;85.91
9695;BME280;4690;52.422;13.486;2022-10-16T06:59:52;101165.72;;;16.76;85.41
9695;BME280;4690;52.422;13.486;2022-10-16T07:02:18;101167.53;;;16.71;85.30
9695;BME280;4690;52.422;13.486;2022-10-16T07:04:43;101158.13;;;16.72;85.94
9695;BME280;4690;52.422;13.486;2022-10-16T07:07:09;101164.59;;;16.77;85.64
9695;BME280;4690;52.422;13.486;2022-10-16T07:09:35;101168.56;;;16.82;85.67
9695;BME280;4690;52.422;13.486;2022-10-16T07:12:01;101171.50;;;16.97;86.00
9695;BME280;4690;52.422;13.486;2022-10-16T07:14:26;101181.66;;;17.13;86.18
9695;BME280;4690;52.422;13.486;2022-10-16T07:16:53;101187.66;;;17.32;85.93
9695;BME280;4690;52.422;13.486;2022-10-16T07:19:19;101203.66;;;17.52;84.75
9695;BME280;4690;52.422;13.486;2022-10-16T07:21:44;101193.53;;;17.68;83.36
9695;BME280;4690;52.422;13.486;2022-10-16T07:24:15;101175.59;;;17.76;83.60
9695;BME280;4690;52.422;13.486;2022-10-16T07:26:44;101179.41;;;17.97;83.10
9695;BME280;4690;52.422;13.486;2022-10-16T07:29:20;101180.50;;;17.96;82.63
9695;BME280;4690;52.422;13.486;2022-10-16T07:31:48;101196.69;;;18.09;82.38
9695;BME280;4690;52.422;13.486;2022-10-16T07:34:17;101200.34;;;18.14;81.62
9695;BME280;4690;52.422;13.486;2022-10-16T07:36:43;101196.53;;;18.26;81.14
9695;BME280;4690;52.422;13.486;2022-10-16T07:39:08;101188.84;;;18.38;81.14
9695;BME280;4690;52.422;13.486;2022-10-16T07:41:34;101187.75;;;18.44;80.57
9695;BME280;4690;52.422;13.486;2022-10-16T07:44:03;101189.25;;;18.62;80.14
9695;BME280;4690;52.422;13.486;2022-10-16T07:46:29;101193.41;;;18.59;79.25
9695;BME280;4690;52.422;13.486;2022-10-16T07:48:56;101190.03;;;18.52;79.40
9695;BME280;4690;52.422;13.486;2022-10-16T07:51:24;101197.53;;;18.52;79.38
9695;BME280;4690;52.422;13.486;2022-10-16T07:53:50;101200.59;;;18.50;79.22
9695;BME280;4690;52.422;13.486;2022-10-16T07:56:18;101195.50;;;18.37;79.87
9695;BME280;4690;52.422;13.486;2022-10-16T07:58:45;101202.66;;;18.28;80.60
9695;BME280;4690;52.422;13.486;2022-10-16T08:01:14;101195.16;;;18.28;80.33
9695;BME280;4690;52.422;13.486;2022-10-16T08:03:45;101181.59;;;18.32;81.02
9695;BME280;4690;52.422;13.486;2022-10-16T08:06:11;101196.81;;;18.29;80.54
9695;BME280;4690;52.422;13.486;2022-10-16T08:08:37;101207.38;;;18.32;80.86
9695;BME280;4690;52.422;13.486;2022-10-16T08:11:03;101212.94;;;18.27;81.11
9695;BME280;4690;52.422;13.486;2022-10-16T08:13:30;101211.78;;;18.23;81.57
9695;BME280;4690;52.422;13.486;2022-10-16T08:15:56;101222.38;;;18.31;81.70
9695;BME280;4690;52.422;13.486;2022-10-16T08:18:22;101230.78;;;18.47;81.52
9695;BME280;4690;52.422;13.486;2022-10-16T08:20:56;101234.06;;;18.38;80.87
9695;BME280;4690;52.422;13.486;2022-10-16T08:23:23;101231.88;;;18.41;80.85
9695;BME280;4690;52.422;13.486;2022-10-16T08:25:52;101230.16;;;18.34;81.19
9695;BME280;4690;52.422;13.486;2022-10-16T08:28:19;101228.22;;;18.35;81.42
9695;BME280;4690;52.422;13.486;2022-10-16T08:30:45;101236.09;;;18.48;81.03
9695;BME280;4690;52.422;13.486;2022-10-16T08:33:10;101236.16;;;18.58;80.81
9695;BME280;4690;52.422;13.486;2022-10-16T08:35:36;101234.06;;;18.76;80.13
9695;BME280;4690;52.422;13.486;2022-10-16T08:38:06;101231.63;;;18.90;79.50
9695;BME280;4690;52.422;13.486;2022-10-16T08:40:34;101239.41;;;18.93;79.49
9695;BME280;4690;52.422;13.486;2022-10-16T08:43:29;101239.94;;;18.85;78.51
9695;BME280;4690;52.422;13.486;2022-10-16T08:51:34;101228.00;;;18.84;77.48
9695;BME280;4690;52.422;13.486;2022-10-16T08:54:10;101231.06;;;18.88;77.65
9695;BME280;4690;52.422;13.486;2022-10-16T08:56:37;101239.97;;;18.95;76.79
9695;BME280;4690;52.422;13.486;2022-10-16T08:59:10;101241.94;;;18.99;76.37
9695;BME280;4690;52.422;13.486;2022-10-16T09:01:41;101244.41;;;18.91;77.06
9695;BME280;4690;52.422;13.486;2022-10-16T09:04:44;101246.91;;;18.87;77.00
9695;BME280;4690;52.422;13.486;2022-10-16T09:07:38;101251.63;;;18.87;77.11
9695;BME280;4690;52.422;13.486;2022-10-16T09:16:18;101267.03;;;19.25;76.05
9695;BME280;4690;52.422;13.486;2022-10-16T09:21:47;101282.16;;;19.49;73.90
9695;BME280;4690;52.422;13.486;2022-10-16T09:24:18;101272.69;;;19.56;74.43
9695;BME280;4690;52.422;13.486;2022-10-16T09:26:47;101275.28;;;19.73;72.81
9695;BME280;4690;52.422;13.486;2022-10-16T09:29:14;101272.16;;;19.64;73.35
9695;BME280;4690;52.422;13.486;2022-10-16T09:31:42;101271.09;;;19.75;72.61
9695;BME280;4690;52.422;13.486;2022-10-16T09:34:36;101268.28;;;19.60;72.22
9695;BME280;4690;52.422;13.486;2022-10-16T09:37:12;101270.81;;;19.66;72.56
9695;BME280;4690;52.422;13.486;2022-10-16T09:39:53;101277.16;;;19.57;72.87
9695;BME280;4690;52.422;13.486;2022-10-16T09:42:31;101278.53;;;19.49;72.72
9695;BME280;4690;52.422;13.486;2022-10-16T09:44:58;101282.16;;;19.55;72.33
9695;BME280;4690;52.422;13.486;2022-10-16T09:47:29;101294.38;;;19.54;72.84
9695;BME280;4690;52.422;13.486;2022-10-16T09:49:59;101296.44;;;19.84;72.23
9695;BME280;4690;52.422;13.486;2022-10-16T09:52:29;101300.63;;;20.02;71.32
9695;BME280;4690;52.422;13.486;2022-10-16T09:55:12;101298.06;;;19.69;70.44
9695;BME280;4690;52.422;13.486;2022-10-16T09:57:53;101307.75;;;19.62;71.72
9695;BME280;4690;52.422;13.486;2022-10-16T10:00:19;101300.22;;;19.62;71.41
9695;BME280;4690;52.422;13.486;2022-10-16T10:02:46;101309.75;;;19.66;71.05
9695;BME280;4690;52.422;13.486;2022-10-16T10:05:27;101304.44;;;19.60;71.68
9695;BME280;4690;52.422;13.486;2022-10-16T10:07:55;101311.06;;;19.54;71.43
9695;BME280;4690;52.422;13.486;2022-10-16T10:12:48;101314.25;;;19.88;71.25
9695;BME280;4690;52.422;13.486;2022-10-16T10:15:15;101315.66;;;20.06;70.49
9695;BME280;4690;52.422;13.486;2022-10-16T10:17:52;101325.13;;;20.46;69.30
9695;BME280;4690;52.422;13.486;2022-10-16T10:20:25;101320.13;;;20.58;67.91
9695;BME280;4690;52.422;13.486;2022-10-16T10:22:51;101322.34;;;20.81;67.93
9695;BME280;4690;52.422;13.486;2022-10-16T10:25:42;101312.81;;;21.03;66.52
9695;BME280;4690;52.422;13.486;2022-10-16T10:31:14;101325.41;;;20.90;64.35
9695;BME280;4690;52.422;13.486;2022-10-16T10:33:49;101323.19;;;20.87;65.33
9695;BME280;4690;52.422;13.486;2022-10-16T10:36:39;101325.13;;;20.81;63.86
9695;BME280;4690;52.422;13.486;2022-10-16T10:39:27;101329.31;;;20.69;65.42
9695;BME280;4690;52.422;13.486;2022-10-16T10:42:29;101327.94;;;20.71;64.51
9695;BME280;4690;52.422;13.486;2022-10-16T10:50:59;101341.31;;;20.64;63.63
9695;BME280;4690;52.422;13.486;2022-10-16T11:02:39;101345.31;;;21.33;62.06
9695;BME280;4690;52.422;13.486;2022-10-16T11:05:45;101338.91;;;21.33;60.34
9695;BME280;4690;52.422;13.486;2022-10-16T11:08:46;101343.78;;;20.91;60.59
9695;BME280;4690;52.422;13.486;2022-10-16T11:14:06;101348.53;;;20.80;61.41
9695;BME280;4690;52.422;13.486;2022-10-16T11:16:58;101345.66;;;21.21;60.55
9695;BME280;4690;52.422;13.486;2022-10-16T11:22:44;101349.47;;;22.01;57.25
9695;BME280;4690;52.422;13.486;2022-10-16T11:25:13;101351.91;;;22.12;56.68
9695;BME280;4690;52.422;13.486;2022-10-16T11:28:07;101361.31;;;22.27;56.37
9695;BME280;4690;52.422;13.486;2022-10-16T11:30:56;101347.66;;;22.25;56.42
9695;BME280;4690;52.422;13.486;2022-10-16T11:33:30;101340.09;;;22.31;56.57
9695;BME280;4690;52.422;13.486;2022-10-16T11:36:26;101344.63;;;22.16;55.27
9695;BME280;4690;52.422;13.486;2022-10-16T11:48:32;101347.13;;;21.74;56.56
9695;BME280;4690;52.422;13.486;2022-10-16T11:54:29;101348.34;;;21.57;55.85
9695;BME280;4690;52.422;13.486;2022-10-16T11:57:07;101346.47;;;21.92;54.94
9695;BME280;4690;52.422;13.486;2022-10-16T11:59:49;101354.69;;;22.18;54.60
9695;BME280;4690;52.422;13.486;2022-10-16T12:03:22;101358.75;;;22.70;53.88
9695;BME280;4690;52.422;13.486;2022-10-16T12:08:24;101353.31;;;22.83;51.30
9695;BME280;4690;52.422;13.486;2022-10-16T12:10:50;101350.75;;;22.87;50.89
9695;BME280;4690;52.422;13.486;2022-10-16T12:16:25;101370.16;;;22.73;50.12
9695;BME280;4690;52.422;13.486;2022-10-16T12:19:11;101370.09;;;22.49;52.18
9695;BME280;4690;52.422;13.486;2022-10-16T12:21:38;101378.84;;;22.72;51.00
9695;BME280;4690;52.422;13.486;2022-10-16T12:24:04;101371.91;;;22.30;50.22
9695;BME280;4690;52.422;13.486;2022-10-16T12:26:39;101374.69;;;22.30;50.23
9695;BME280;4690;52.422;13.486;2022-10-16T12:29:28;101374.28;;;22.47;50.94
9695;BME280;4690;52.422;13.486;2022-10-16T12:31:55;101376.78;;;22.53;50.08
9695;BME280;4690;52.422;13.486;2022-10-16T12:34:29;101369.72;;;22.95;49.63
9695;BME280;4690;52.422;13.486;2022-10-16T12:37:08;101367.34;;;23.08;49.46
9695;BME280;4690;52.422;13.486;2022-10-16T12:39:35;101375.38;;;23.14;48.61
9695;BME280;4690;52.422;13.486;2022-10-16T12:42:39;101376.38;;;23.47;48.61
9695;BME280;4690;52.422;13.486;2022-10-16T12:45:31;101380.88;;;23.73;47.72
9695;BME280;4690;52.422;13.486;2022-10-16T12:48:00;101380.84;;;23.97;47.53
9695;BME280;4690;52.422;13.486;2022-10-16T12:50:38;101386.19;;;23.74;46.38
9695;BME280;4690;52.422;13.486;2022-10-16T12:53:26;101380.97;;;23.86;47.08
9695;BME280;4690;52.422;13.486;2022-10-16T13:05:20;101386.66;;;24.00;45.27
9695;BME280;4690;52.422;13.486;2022-10-16T13:13:53;101396.44;;;23.79;45.56
9695;BME280;4690;52.422;13.486;2022-10-16T13:28:10;101422.41;;;23.60;46.58
9695;BME280;4690;52.422;13.486;2022-10-16T13:30:43;101426.97;;;23.27;46.54
9695;BME280;4690;52.422;13.486;2022-10-16T13:33:36;101426.03;;;23.37;46.99
9695;BME280;4690;52.422;13.486;2022-10-16T13:36:04;101433.53;;;23.41;47.35
9695;BME280;4690;52.422;13.486;2022-10-16T13:38:34;101433.72;;;23.26;46.43
9695;BME280;4690;52.422;13.486;2022-10-16T13:41:13;101433.81;;;23.16;47.13
9695;BME280;4690;52.422;13.486;2022-10-16T13:43:43;101436.59;;;23.16;47.15
9695;BME280;4690;52.422;13.486;2022-10-16T13:46:21;101443.16;;;23.30;47.22
9695;BME280;4690;52.422;13.486;2022-10-16T13:49:12;101448.75;;;23.30;46.43
9695;BME280;4690;52.422;13.486;2022-10-16T13:51:38;101441.84;;;23.22;47.29
9695;BME280;4690;52.422;13.486;2022-10-16T13:54:04;101438.53;;;23.20;47.12
9695;BME280;4690;52.422;13.486;2022-10-16T13:56:32;101446.38;;;23.18;46.81
9695;BME280;4690;52.422;13.486;2022-10-16T13:59:07;101443.22;;;22.96;46.83
9695;BME280;4690;52.422;13.486;2022-10-16T14:01:47;101452.25;;;22.82;47.26
9695;BME280;4690;52.422;13.486;2022-10-16T14:04:14;101450.59;;;22.81;48.05
9695;BME280;4690;52.422;13.486;2022-10-16T14:06:46;101448.03;;;22.85;48.22
9695;BME280;4690;52.422;13.486;2022-10-16T14:09:26;101445.91;;;22.72;48.94
9695;BME280;4690;52.422;13.486;2022-10-16T14:12:03;101450.09;;;22.69;48.23
9695;BME280;4690;52.422;13.486;2022-10-16T14:14:47;101450.41;;;22.68;49.05
9695;BME280;4690;52.422;13.486;2022-10-16T14:17:21;101455.69;;;22.69;48.59
9695;BME280;4690;52.422;13.486;2022-10-16T14:19:50;101452.00;;;22.79;49.26
9695;BME280;4690;52.422;13.486;2022-10-16T14:24:53;101458.97;;;22.42;49.27
9695;BME280;4690;52.422;13.486;2022-10-16T14:27:34;101461.25;;;22.74;49.36
9695;BME280;4690;52.422;13.486;2022-10-16T14:30:15;101467.00;;;22.88;48.72
9695;BME280;4690;52.422;13.486;2022-10-16T14:32:59;101472.16;;;22.76;48.50
9695;BME280;4690;52.422;13.486;2022-10-16T14:35:37;101469.53;;;22.50;49.61
9695;BME280;4690;52.422;13.486;2022-10-16T14:38:06;101464.16;;;22.64;49.46
9695;BME280;4690;52.422;13.486;2022-10-16T14:40:48;101472.13;;;22.81;49.48
9695;BME280;4690;52.422;13.486;2022-10-16T14:43:22;101471.25;;;22.80;49.29
9695;BME280;4690;52.422;13.486;2022-10-16T14:45:54;101470.94;;;22.87;48.71
9695;BME280;4690;52.422;13.486;2022-10-16T14:48:21;101474.84;;;22.86;48.85
9695;BME280;4690;52.422;13.486;2022-10-16T14:50:47;101477.88;;;22.95;48.73
9695;BME280;4690;52.422;13.486;2022-10-16T14:53:13;101473.44;;;22.89;48.92
9695;BME280;4690;52.422;13.486;2022-10-16T14:55:41;101478.59;;;22.71;48.97
9695;BME280;4690;52.422;13.486;2022-10-16T14:58:21;101480.94;;;22.59;49.22
9695;BME280;4690;52.422;13.486;2022-10-16T15:00:49;101481.41;;;22.71;49.78
9695;BME280;4690;52.422;13.486;2022-10-16T15:03:15;101486.72;;;22.73;49.33
9695;BME280;4690;52.422;13.486;2022-10-16T15:05:41;101483.13;;;22.67;49.17
9695;BME280;4690;52.422;13.486;2022-10-16T15:08:07;101483.41;;;22.66;49.99